Houston, Texas
Traffic Map
Current Weather Conditions
Houston, Texas
Few Clouds
Few Clouds
83°
Feels Like: 83°
Wind Chill: 83° Ceiling: Unl
Heat Index: 83° Visibility: 10mi
Dew Point: 61° Wind: 6mph
Humidity: 47% Direction: 40° (NE)
Pressure: 30.01in Gusts: 0mph
Raw Report DataKIAH 282353Z 04005KT 10SM FEW300 28/16 A3001 RMK AO2 SLP162 T02830161 10317 20283 53004
Traffic Incident Summary
Active as of:
Severity:
Category:
InformationThere was an issue retrieving the traffic information for this location. Please try a different location or try again shortly.
Advertisements
Track Severe Weather on mobile